Time;durP1;ratioP1;P1;durP2;ratioP2;P2;SDS_P1;SDS_P2;PMS_P1;PMS_P2;Temp;Humidity;BMP_temperature;BMP_pressure;BME280_temperature;BME280_humidity;BME280_pressure;Samples;Min_cycle;Max_cycle;Signal;HPM_P1;HPM_P2
2021/07/20 00:00:16;;;;;;;31.92;15.05;;;;;;;;;;5071113;28;20032;-83
2021/07/20 00:02:42;;;;;;;31.30;16.38;;;;;;;;;;5070503;28;20028;-83
2021/07/20 00:05:09;;;;;;;31.00;16.08;;;;;;;;;;5071444;28;20095;-83
2021/07/20 00:07:34;;;;;;;29.90;15.70;;;;;;;;;;5050853;28;20065;-83
2021/07/20 00:10:00;;;;;;;34.45;16.15;;;;;;;;;;5069224;28;20215;-83
2021/07/20 00:12:25;;;;;;;29.73;15.57;;;;;;;;;;5051004;28;20016;-83
2021/07/20 00:14:51;;;;;;;26.23;15.27;;;;;;;;;;5069818;28;20056;-83
2021/07/20 00:17:17;;;;;;;32.10;15.52;;;;;;;;;;5051356;28;20062;-83
2021/07/20 00:19:43;;;;;;;32.20;15.93;;;;;;;;;;5050670;28;20059;-83
2021/07/20 00:22:08;;;;;;;34.77;15.60;;;;;;;;;;5068896;28;20051;-83
2021/07/20 00:24:34;;;;;;;30.43;15.77;;;;;;;;;;5051225;28;20290;-83
2021/07/20 00:26:59;;;;;;;28.98;15.38;;;;;;;;;;5068903;28;20267;-83
2021/07/20 00:29:25;;;;;;;29.77;15.77;;;;;;;;;;5068094;28;20021;-83
2021/07/20 00:31:50;;;;;;;27.30;15.38;;;;;;;;;;5051423;28;20271;-83
2021/07/20 00:34:15;;;;;;;35.57;15.60;;;;;;;;;;5050490;28;20515;-83
2021/07/20 00:36:40;;;;;;;26.87;14.80;;;;;;;;;;5039428;28;20340;-83
2021/07/20 00:39:05;;;;;;;35.60;17.52;;;;;;;;;;5050984;28;20316;-83
2021/07/20 00:41:31;;;;;;;31.67;15.77;;;;;;;;;;5069647;28;20025;-83
2021/07/20 00:43:56;;;;;;;32.65;16.60;;;;;;;;;;5069004;28;20068;-83
2021/07/20 00:46:21;;;;;;;24.33;15.57;;;;;;;;;;5068307;28;20062;-83
2021/07/20 00:48:46;;;;;;;28.95;15.90;;;;;;;;;;5068560;28;20020;-83
2021/07/20 00:51:12;;;;;;;34.23;17.20;;;;;;;;;;5068745;28;20027;-83
2021/07/20 00:53:37;;;;;;;28.15;15.25;;;;;;;;;;5068880;28;20267;-83
2021/07/20 00:56:02;;;;;;;32.70;15.73;;;;;;;;;;5069253;28;20032;-83
2021/07/20 00:58:27;;;;;;;33.20;15.25;;;;;;;;;;5049650;28;20458;-83
2021/07/20 01:00:53;;;;;;;29.58;15.05;;;;;;;;;;5069218;28;20024;-83
2021/07/20 01:03:18;;;;;;;26.27;14.63;;;;;;;;;;5069464;28;20063;-83
2021/07/20 01:05:43;;;;;;;34.03;15.80;;;;;;;;;;5068675;28;20078;-82
2021/07/20 01:08:09;;;;;;;28.80;15.55;;;;;;;;;;5048066;28;20017;-83
2021/07/20 01:10:35;;;;;;;29.13;15.75;;;;;;;;;;5050739;28;20499;-82
2021/07/20 01:13:00;;;;;;;25.35;14.68;;;;;;;;;;5079536;28;20032;-83
2021/07/20 01:15:26;;;;;;;33.88;16.35;;;;;;;;;;5050654;28;20036;-83
2021/07/20 01:17:56;;;;;;;30.00;16.73;;;;;;;;;;5067140;28;20110;-83
2021/07/20 01:20:23;;;;;;;36.40;16.63;;;;;;;;;;5049750;28;20036;-83
2021/07/20 01:22:52;;;;;;;27.05;15.60;;;;;;;;;;5068058;28;20045;-83
2021/07/20 01:25:17;;;;;;;27.10;14.40;;;;;;;;;;5067839;28;20472;-82
2021/07/20 01:27:47;;;;;;;33.97;16.38;;;;;;;;;;5049973;28;20066;-83
2021/07/20 01:30:13;;;;;;;30.10;14.97;;;;;;;;;;5050302;28;20764;-83
2021/07/20 01:32:39;;;;;;;32.20;16.05;;;;;;;;;;5067778;28;20308;-83
2021/07/20 01:35:05;;;;;;;32.53;17.08;;;;;;;;;;5050535;28;20502;-82
2021/07/20 01:37:31;;;;;;;33.15;15.88;;;;;;;;;;5068873;28;20029;-83
2021/07/20 01:39:57;;;;;;;30.83;16.23;;;;;;;;;;5070475;28;20024;-82
2021/07/20 01:42:22;;;;;;;26.92;15.15;;;;;;;;;;5086018;28;20032;-82
2021/07/20 01:44:48;;;;;;;29.25;15.20;;;;;;;;;;5088728;28;20036;-83
2021/07/20 01:47:15;;;;;;;28.80;15.65;;;;;;;;;;5089524;28;20012;-83
2021/07/20 01:49:41;;;;;;;30.65;15.35;;;;;;;;;;5070076;28;20027;-83
2021/07/20 01:52:06;;;;;;;30.35;15.75;;;;;;;;;;5072220;28;20551;-83
2021/07/20 01:54:32;;;;;;;29.50;16.17;;;;;;;;;;5053832;28;20387;-83
2021/07/20 01:56:57;;;;;;;31.17;14.65;;;;;;;;;;5068377;28;20427;-83
2021/07/20 01:59:22;;;;;;;39.10;16.23;;;;;;;;;;5052770;28;20178;-83
2021/07/20 02:02:01;;;;;;;37.28;16.20;;;;;;;;;;5072069;28;20395;-83
2021/07/20 02:04:49;;;;;;;32.90;15.45;;;;;;;;;;5071669;28;20056;-83
2021/07/20 02:09:59;;;;;;;33.08;15.75;;;;;;;;;;5071019;28;20395;-83
2021/07/20 02:12:37;;;;;;;33.13;16.70;;;;;;;;;;5069105;28;20016;-83
2021/07/20 02:15:03;;;;;;;38.35;16.27;;;;;;;;;;5071208;28;20111;-83
2021/07/20 02:17:29;;;;;;;31.35;15.88;;;;;;;;;;5071205;28;20483;-82
2021/07/20 02:19:59;;;;;;;34.33;16.45;;;;;;;;;;5070754;28;20031;-82
2021/07/20 02:22:25;;;;;;;34.00;15.13;;;;;;;;;;5071478;28;20081;-83
2021/07/20 02:24:51;;;;;;;24.33;14.48;;;;;;;;;;5070582;28;20111;-83
2021/07/20 02:27:19;;;;;;;28.10;14.18;;;;;;;;;;5070293;28;20024;-83
2021/07/20 02:29:45;;;;;;;31.80;15.52;;;;;;;;;;5070460;28;20189;-83
2021/07/20 02:32:11;;;;;;;29.95;15.43;;;;;;;;;;5070927;28;20223;-83
2021/07/20 02:34:37;;;;;;;26.08;14.45;;;;;;;;;;5071221;28;20476;-83
2021/07/20 02:37:02;;;;;;;33.53;15.50;;;;;;;;;;5052832;28;20032;-83
2021/07/20 02:39:28;;;;;;;27.63;15.65;;;;;;;;;;5070704;28;20024;-83
2021/07/20 02:41:54;;;;;;;26.73;15.60;;;;;;;;;;5052627;28;20029;-82
2021/07/20 02:44:19;;;;;;;30.70;15.65;;;;;;;;;;5072712;28;20039;-83
2021/07/20 02:46:45;;;;;;;28.45;14.38;;;;;;;;;;5052636;28;20013;-83
2021/07/20 02:49:11;;;;;;;31.02;15.38;;;;;;;;;;5070120;28;20029;-83
2021/07/20 02:51:37;;;;;;;34.20;15.40;;;;;;;;;;5070811;28;20032;-82
2021/07/20 02:54:03;;;;;;;29.65;14.20;;;;;;;;;;5070756;28;20028;-82
2021/07/20 02:56:29;;;;;;;25.20;14.80;;;;;;;;;;5070285;28;20458;-83
2021/07/20 02:58:56;;;;;;;30.38;14.25;;;;;;;;;;5051559;28;20021;-82
2021/07/20 03:01:22;;;;;;;29.10;14.60;;;;;;;;;;5052430;28;20625;-83
2021/07/20 03:03:47;;;;;;;33.28;15.85;;;;;;;;;;5064568;28;20028;-82
2021/07/20 03:06:13;;;;;;;41.17;15.57;;;;;;;;;;5054720;28;20093;-82
2021/07/20 03:08:39;;;;;;;29.02;15.20;;;;;;;;;;5069973;28;20020;-82
2021/07/20 03:11:06;;;;;;;38.30;15.77;;;;;;;;;;5069758;28;20035;-83
2021/07/20 03:13:33;;;;;;;35.85;15.35;;;;;;;;;;5051818;28;20097;-82
2021/07/20 03:15:59;;;;;;;30.05;15.23;;;;;;;;;;5070148;28;20025;-83
2021/07/20 03:18:26;;;;;;;35.63;15.68;;;;;;;;;;5051422;28;20124;-83
2021/07/20 03:20:52;;;;;;;34.60;15.13;;;;;;;;;;5052344;28;20028;-83
2021/07/20 03:23:18;;;;;;;28.67;15.05;;;;;;;;;;5070050;28;20017;-82
2021/07/20 03:25:43;;;;;;;29.77;14.75;;;;;;;;;;5069720;28;20024;-83
2021/07/20 03:28:09;;;;;;;29.05;15.13;;;;;;;;;;5051088;28;20394;-82
2021/07/20 03:30:35;;;;;;;30.58;15.25;;;;;;;;;;5070534;28;20498;-82
2021/07/20 03:33:01;;;;;;;32.80;16.45;;;;;;;;;;5050525;28;20089;-82
2021/07/20 03:35:26;;;;;;;30.08;15.25;;;;;;;;;;5069936;28;20024;-82
2021/07/20 03:37:52;;;;;;;37.75;15.63;;;;;;;;;;5069189;28;20480;-82
2021/07/20 03:40:18;;;;;;;28.90;13.82;;;;;;;;;;5069206;28;20016;-82
2021/07/20 03:42:44;;;;;;;28.58;13.82;;;;;;;;;;5051787;28;20020;-82
2021/07/20 03:45:10;;;;;;;30.20;15.32;;;;;;;;;;5049995;28;20500;-82
2021/07/20 03:47:36;;;;;;;32.17;14.27;;;;;;;;;;5057116;28;20043;-82
2021/07/20 03:50:03;;;;;;;30.55;13.77;;;;;;;;;;5069999;28;20024;-82
2021/07/20 03:52:29;;;;;;;28.00;14.68;;;;;;;;;;5051857;28;20391;-81
2021/07/20 03:54:55;;;;;;;38.85;15.15;;;;;;;;;;5050977;28;20028;-82
2021/07/20 03:57:21;;;;;;;32.13;14.27;;;;;;;;;;5051000;28;20116;-82
2021/07/20 03:59:47;;;;;;;33.03;15.15;;;;;;;;;;5051611;28;20192;-82
2021/07/20 04:02:13;;;;;;;28.88;14.10;;;;;;;;;;5068455;28;20016;-82
2021/07/20 04:04:40;;;;;;;33.58;14.75;;;;;;;;;;5051746;28;20025;-82
2021/07/20 04:07:06;;;;;;;27.38;13.95;;;;;;;;;;5068702;28;20020;-82
2021/07/20 04:09:32;;;;;;;29.88;14.65;;;;;;;;;;5068366;28;20013;-82
2021/07/20 04:11:57;;;;;;;33.20;14.38;;;;;;;;;;5051519;28;20074;-82
2021/07/20 04:14:23;;;;;;;28.83;14.23;;;;;;;;;;5069340;28;20488;-82
2021/07/20 04:16:48;;;;;;;33.75;15.13;;;;;;;;;;5068431;28;20480;-82
2021/07/20 04:19:15;;;;;;;33.40;16.13;;;;;;;;;;5068388;28;20027;-82
2021/07/20 04:21:41;;;;;;;32.88;14.35;;;;;;;;;;5069241;28;20682;-82
2021/07/20 04:24:06;;;;;;;27.00;14.35;;;;;;;;;;5068070;28;20101;-82
2021/07/20 04:26:31;;;;;;;30.90;15.57;;;;;;;;;;5050304;28;20108;-82
2021/07/20 04:28:57;;;;;;;36.17;14.48;;;;;;;;;;5068475;28;20051;-82
2021/07/20 04:31:24;;;;;;;27.67;13.70;;;;;;;;;;5050304;28;20024;-82
2021/07/20 04:33:49;;;;;;;30.60;14.43;;;;;;;;;;5051456;28;20029;-82
2021/07/20 04:36:15;;;;;;;30.23;13.90;;;;;;;;;;5068826;28;20028;-83
2021/07/20 04:38:40;;;;;;;32.10;15.32;;;;;;;;;;5067652;28;20107;-82
2021/07/20 04:41:06;;;;;;;30.15;14.88;;;;;;;;;;5068509;28;20024;-81
2021/07/20 04:43:32;;;;;;;27.45;13.55;;;;;;;;;;5050689;28;20021;-81
2021/07/20 04:45:57;;;;;;;25.90;14.10;;;;;;;;;;5050829;28;20027;-81
2021/07/20 04:48:23;;;;;;;28.83;14.25;;;;;;;;;;5068391;28;20017;-81
2021/07/20 04:50:49;;;;;;;23.92;13.82;;;;;;;;;;5068923;28;20103;-81
2021/07/20 04:53:15;;;;;;;31.92;14.35;;;;;;;;;;5063256;28;20028;-81
2021/07/20 04:55:42;;;;;;;27.45;14.75;;;;;;;;;;5035067;28;20059;-81
2021/07/20 04:58:08;;;;;;;29.08;14.95;;;;;;;;;;5046865;28;20479;-82
2021/07/20 05:00:34;;;;;;;27.70;14.73;;;;;;;;;;5065536;28;20036;-81
2021/07/20 05:03:00;;;;;;;28.08;14.13;;;;;;;;;;5048538;28;20025;-81
2021/07/20 05:05:25;;;;;;;30.40;14.30;;;;;;;;;;5047692;28;20017;-81
2021/07/20 05:07:52;;;;;;;36.15;15.55;;;;;;;;;;5046394;28;20364;-81
2021/07/20 05:10:18;;;;;;;26.45;14.35;;;;;;;;;;5065462;28;20024;-82
2021/07/20 05:12:43;;;;;;;32.70;14.80;;;;;;;;;;5062887;28;20498;-82
2021/07/20 05:15:09;;;;;;;26.20;14.02;;;;;;;;;;5044816;28;20107;-82
2021/07/20 05:17:35;;;;;;;24.35;14.00;;;;;;;;;;5039481;28;20029;-82
2021/07/20 05:20:04;;;;;;;27.38;14.18;;;;;;;;;;5066492;28;20028;-81
2021/07/20 05:22:31;;;;;;;26.88;14.65;;;;;;;;;;5062280;28;20081;-82
2021/07/20 05:24:56;;;;;;;31.77;15.05;;;;;;;;;;5058391;28;20541;-82
2021/07/20 05:27:22;;;;;;;30.05;15.00;;;;;;;;;;5055886;28;20025;-81
2021/07/20 05:29:47;;;;;;;29.33;14.48;;;;;;;;;;5053429;28;20022;-81
2021/07/20 05:32:17;;;;;;;29.52;14.88;;;;;;;;;;5047276;28;20031;-82
2021/07/20 05:34:45;;;;;;;24.55;13.77;;;;;;;;;;5053383;28;20036;-81
2021/07/20 05:37:11;;;;;;;30.48;14.93;;;;;;;;;;5039897;28;20047;-82
2021/07/20 05:39:36;;;;;;;28.77;14.55;;;;;;;;;;5058474;28;20025;-81
2021/07/20 05:42:04;;;;;;;26.48;14.63;;;;;;;;;;5057924;28;20127;-80
2021/07/20 05:44:28;;;;;;;27.35;15.35;;;;;;;;;;5104930;22;20125;-65
2021/07/20 05:46:53;;;;;;;27.50;14.30;;;;;;;;;;5068640;28;20059;-65
2021/07/20 05:49:19;;;;;;;28.75;15.23;;;;;;;;;;5060142;28;20036;-65
2021/07/20 05:51:44;;;;;;;33.17;15.60;;;;;;;;;;5066970;28;20473;-65
2021/07/20 05:54:10;;;;;;;38.92;17.42;;;;;;;;;;5031568;28;20040;-65
2021/07/20 05:56:35;;;;;;;34.35;16.92;;;;;;;;;;5049016;28;20021;-65
2021/07/20 05:59:01;;;;;;;31.52;14.80;;;;;;;;;;5049313;28;20016;-65
2021/07/20 06:01:30;;;;;;;33.97;15.95;;;;;;;;;;5049834;28;20452;-65
2021/07/20 06:03:56;;;;;;;37.22;16.40;;;;;;;;;;5049189;28;20091;-65
2021/07/20 06:06:25;;;;;;;28.25;16.08;;;;;;;;;;5049126;28;20029;-65
2021/07/20 06:08:50;;;;;;;36.85;16.92;;;;;;;;;;5048428;28;20107;-65
2021/07/20 06:11:15;;;;;;;34.10;17.15;;;;;;;;;;5042924;28;20097;-65
2021/07/20 06:13:41;;;;;;;30.25;16.30;;;;;;;;;;5048685;28;20104;-65
2021/07/20 06:16:07;;;;;;;30.98;16.60;;;;;;;;;;5048352;28;20048;-65
2021/07/20 06:18:34;;;;;;;27.65;15.05;;;;;;;;;;5049724;28;20025;-65
2021/07/20 06:21:01;;;;;;;35.20;16.45;;;;;;;;;;5049585;28;20103;-65
2021/07/20 06:23:27;;;;;;;33.35;15.77;;;;;;;;;;5051665;28;20633;-65
2021/07/20 06:25:52;;;;;;;35.13;15.48;;;;;;;;;;5071888;28;20082;-65
2021/07/20 06:28:19;;;;;;;34.35;16.58;;;;;;;;;;5055143;28;20017;-65
2021/07/20 06:30:45;;;;;;;28.73;15.50;;;;;;;;;;5073418;28;20362;-65
2021/07/20 06:33:12;;;;;;;33.47;16.17;;;;;;;;;;5080908;22;21249;-64
2021/07/20 06:35:40;;;;;;;43.20;17.58;;;;;;;;;;5069886;28;20437;-64
2021/07/20 06:38:05;;;;;;;31.33;15.77;;;;;;;;;;5066958;28;20035;-64
2021/07/20 06:40:30;;;;;;;33.28;16.77;;;;;;;;;;5071561;28;20091;-63
2021/07/20 06:42:56;;;;;;;30.92;15.90;;;;;;;;;;5056748;28;20029;-64
2021/07/20 06:45:22;;;;;;;36.13;17.80;;;;;;;;;;5055418;28;20009;-64
2021/07/20 06:47:48;;;;;;;31.90;15.90;;;;;;;;;;5051993;28;20021;-64
2021/07/20 06:50:17;;;;;;;28.80;15.98;;;;;;;;;;5061059;28;20044;-64
2021/07/20 06:52:43;;;;;;;29.73;15.30;;;;;;;;;;5065353;28;20384;-64
2021/07/20 06:55:09;;;;;;;32.72;16.30;;;;;;;;;;5061561;28;20029;-64
2021/07/20 06:57:35;;;;;;;31.80;16.02;;;;;;;;;;5059449;28;20509;-65
2021/07/20 07:00:01;;;;;;;34.03;16.40;;;;;;;;;;5060507;28;20025;-64
2021/07/20 07:02:27;;;;;;;31.60;17.05;;;;;;;;;;5068487;28;20027;-64
2021/07/20 07:04:58;;;;;;;31.33;16.50;;;;;;;;;;5066086;28;20046;-64
2021/07/20 07:07:23;;;;;;;38.28;16.88;;;;;;;;;;5057455;28;20021;-64
2021/07/20 07:09:49;;;;;;;33.30;18.23;;;;;;;;;;5067402;28;20354;-64
2021/07/20 07:12:15;;;;;;;31.20;14.73;;;;;;;;;;5070569;28;20102;-64
2021/07/20 07:14:40;;;;;;;34.70;16.55;;;;;;;;;;5071435;28;20024;-64
2021/07/20 07:17:06;;;;;;;31.40;15.43;;;;;;;;;;5054624;28;20025;-64
2021/07/20 07:19:31;;;;;;;32.20;16.48;;;;;;;;;;5060122;28;20024;-64
2021/07/20 07:21:57;;;;;;;32.00;16.85;;;;;;;;;;5060954;28;20408;-65
2021/07/20 07:24:23;;;;;;;31.67;16.02;;;;;;;;;;5072190;28;20078;-64
2021/07/20 07:26:49;;;;;;;34.28;16.83;;;;;;;;;;5056972;28;20385;-64
2021/07/20 07:29:16;;;;;;;40.30;17.35;;;;;;;;;;5066663;28;20514;-64
2021/07/20 07:31:43;;;;;;;34.97;16.55;;;;;;;;;;5067574;28;20023;-64
2021/07/20 07:34:09;;;;;;;38.85;18.35;;;;;;;;;;5060169;28;20028;-64
2021/07/20 07:36:35;;;;;;;33.53;16.98;;;;;;;;;;5051226;28;20111;-64
2021/07/20 07:39:05;;;;;;;35.33;18.20;;;;;;;;;;5053577;28;20024;-64
2021/07/20 07:41:34;;;;;;;29.58;16.90;;;;;;;;;;5070761;28;20074;-64
2021/07/20 07:44:00;;;;;;;30.58;17.85;;;;;;;;;;5065356;28;20063;-64
2021/07/20 07:46:25;;;;;;;29.10;16.95;;;;;;;;;;5056540;28;20150;-64
2021/07/20 07:48:51;;;;;;;32.10;17.85;;;;;;;;;;5054541;28;20020;-64
2021/07/20 07:51:18;;;;;;;28.45;17.17;;;;;;;;;;5065728;28;20439;-65
2021/07/20 07:53:43;;;;;;;33.88;16.88;;;;;;;;;;5060991;28;20484;-65
2021/07/20 07:56:09;;;;;;;27.95;15.77;;;;;;;;;;5069750;28;20077;-64
2021/07/20 07:58:36;;;;;;;26.95;16.70;;;;;;;;;;5066219;28;20082;-65
2021/07/20 08:01:04;;;;;;;33.00;17.15;;;;;;;;;;5065590;28;20179;-65
2021/07/20 08:03:30;;;;;;;31.83;14.93;;;;;;;;;;5066251;28;20054;-65
2021/07/20 08:05:56;;;;;;;33.17;15.85;;;;;;;;;;5063256;28;20103;-65
2021/07/20 08:08:21;;;;;;;25.45;15.60;;;;;;;;;;5058201;28;20496;-65
2021/07/20 08:10:47;;;;;;;23.35;15.30;;;;;;;;;;5055950;28;20027;-65
2021/07/20 08:13:13;;;;;;;27.67;14.02;;;;;;;;;;5067024;28;20388;-65
2021/07/20 08:15:39;;;;;;;27.80;15.15;;;;;;;;;;5066428;28;20012;-64
2021/07/20 08:18:04;;;;;;;22.42;13.23;;;;;;;;;;5070043;28;20044;-65
2021/07/20 08:20:30;;;;;;;26.27;15.05;;;;;;;;;;5068603;28;20063;-64
2021/07/20 08:22:55;;;;;;;29.90;15.55;;;;;;;;;;5055044;28;20066;-64
2021/07/20 08:25:30;;;;;;;23.60;13.37;;;;;;;;;;5062428;28;20020;-64
2021/07/20 08:28:04;;;;;;;25.33;14.88;;;;;;;;;;5068412;28;20036;-65
2021/07/20 08:30:34;;;;;;;20.95;13.10;;;;;;;;;;5065428;28;20020;-64
2021/07/20 08:33:00;;;;;;;22.35;12.50;;;;;;;;;;5071036;28;20042;-65
2021/07/20 08:35:27;;;;;;;29.80;12.82;;;;;;;;;;5054732;28;20468;-65
2021/07/20 08:37:54;;;;;;;24.13;12.70;;;;;;;;;;5054260;28;20028;-64
2021/07/20 08:40:38;;;;;;;30.70;14.15;;;;;;;;;;5056948;28;20020;-64
2021/07/20 08:43:05;;;;;;;25.42;14.40;;;;;;;;;;5065879;28;20024;-64
2021/07/20 08:45:33;;;;;;;30.73;13.45;;;;;;;;;;5068178;28;20492;-64
2021/07/20 08:48:01;;;;;;;25.45;13.70;;;;;;;;;;5061051;28;20112;-64
2021/07/20 08:50:39;;;;;;;28.60;13.15;;;;;;;;;;5052161;28;20417;-64
2021/07/20 08:53:13;;;;;;;16.80;10.20;;;;;;;;;;5053036;28;20044;-64
2021/07/20 08:55:41;;;;;;;20.50;10.38;;;;;;;;;;5051560;28;20027;-65
2021/07/20 08:58:11;;;;;;;20.00;11.52;;;;;;;;;;5050082;28;20021;-64
2021/07/20 09:00:38;;;;;;;23.08;8.95;;;;;;;;;;5067988;28;20029;-65
2021/07/20 09:03:22;;;;;;;24.67;10.32;;;;;;;;;;5056632;28;20112;-64
2021/07/20 09:05:50;;;;;;;26.88;10.48;;;;;;;;;;5065597;28;20027;-64
2021/07/20 09:08:30;;;;;;;16.10;9.27;;;;;;;;;;5066855;28;20032;-64
2021/07/20 09:11:18;;;;;;;18.08;9.85;;;;;;;;;;5060568;28;20047;-64
2021/07/20 09:13:48;;;;;;;22.77;10.52;;;;;;;;;;5056117;28;20036;-64
2021/07/20 09:16:29;;;;;;;20.33;10.93;;;;;;;;;;5067473;28;20164;-64
2021/07/20 09:18:57;;;;;;;22.20;10.05;;;;;;;;;;5063411;28;20029;-64
2021/07/20 09:21:22;;;;;;;21.30;10.30;;;;;;;;;;5059987;28;20430;-64
2021/07/20 09:23:56;;;;;;;24.80;10.98;;;;;;;;;;5062649;28;20067;-64
2021/07/20 09:26:23;;;;;;;22.67;10.77;;;;;;;;;;5051690;28;20130;-64
2021/07/20 09:28:57;;;;;;;20.15;10.65;;;;;;;;;;5051015;28;20096;-64
2021/07/20 09:31:51;;;;;;;19.38;9.88;;;;;;;;;;5066468;28;20480;-65
2021/07/20 09:34:23;;;;;;;18.33;9.90;;;;;;;;;;5060561;28;20135;-64
2021/07/20 09:37:06;;;;;;;31.02;10.73;;;;;;;;;;5061813;28;20388;-64
2021/07/20 09:39:35;;;;;;;19.58;12.32;;;;;;;;;;5049927;28;20021;-65
2021/07/20 09:42:20;;;;;;;24.05;12.13;;;;;;;;;;5034114;28;20472;-65
2021/07/20 09:44:58;;;;;;;24.27;12.23;;;;;;;;;;5049821;28;20075;-65
2021/07/20 09:47:43;;;;;;;27.30;11.88;;;;;;;;;;5068943;28;20082;-64
2021/07/20 09:50:14;;;;;;;27.75;12.38;;;;;;;;;;5062233;28;20483;-64
2021/07/20 09:52:42;;;;;;;26.65;12.50;;;;;;;;;;5051146;28;20382;-64
2021/07/20 09:55:07;;;;;;;31.65;11.90;;;;;;;;;;5065941;28;20111;-64
2021/07/20 09:57:45;;;;;;;23.27;11.77;;;;;;;;;;5066469;28;20159;-64
2021/07/20 10:00:10;;;;;;;20.75;10.20;;;;;;;;;;5066812;28;20016;-65
2021/07/20 10:02:42;;;;;;;18.38;11.18;;;;;;;;;;5066673;28;20115;-64
2021/07/20 10:05:27;;;;;;;17.58;10.70;;;;;;;;;;5053054;28;20024;-64
2021/07/20 10:07:54;;;;;;;17.75;9.82;;;;;;;;;;5004966;28;20060;-64
2021/07/20 10:10:37;;;;;;;23.55;10.82;;;;;;;;;;5062036;28;20025;-64
2021/07/20 10:13:02;;;;;;;24.25;12.32;;;;;;;;;;5055661;28;20029;-64
2021/07/20 10:15:34;;;;;;;34.47;13.30;;;;;;;;;;5054964;28;20021;-64
2021/07/20 10:18:05;;;;;;;20.90;11.30;;;;;;;;;;5054392;28;20698;-64
2021/07/20 10:20:32;;;;;;;26.90;12.10;;;;;;;;;;5071493;28;20013;-64
2021/07/20 10:23:00;;;;;;;23.23;11.18;;;;;;;;;;5062365;28;20111;-64
2021/07/20 10:25:35;;;;;;;27.63;12.98;;;;;;;;;;5061745;28;20013;-65
2021/07/20 10:28:07;;;;;;;22.73;11.85;;;;;;;;;;5058352;28;20017;-64
2021/07/20 10:30:36;;;;;;;26.35;11.90;;;;;;;;;;5059312;28;20020;-65
2021/07/20 10:33:19;;;;;;;25.27;10.75;;;;;;;;;;5052932;28;20029;-64
2021/07/20 10:36:05;;;;;;;26.77;10.88;;;;;;;;;;5054815;28;20347;-64
2021/07/20 10:38:44;;;;;;;28.13;11.38;;;;;;;;;;5058204;28;20016;-65
2021/07/20 10:41:11;;;;;;;30.08;11.73;;;;;;;;;;5066702;28;20019;-64
2021/07/20 10:43:37;;;;;;;19.02;10.13;;;;;;;;;;5065195;28;20028;-64
2021/07/20 10:46:04;;;;;;;20.33;10.65;;;;;;;;;;5072831;28;20021;-64
2021/07/20 10:48:37;;;;;;;28.20;10.70;;;;;;;;;;5054077;28;20052;-64
2021/07/20 10:51:12;;;;;;;21.05;10.13;;;;;;;;;;5067880;28;20499;-64
2021/07/20 10:53:56;;;;;;;24.42;11.20;;;;;;;;;;5059795;28;20020;-64
2021/07/20 10:56:25;;;;;;;22.70;11.57;;;;;;;;;;5052869;28;20028;-64
2021/07/20 10:59:05;;;;;;;26.08;11.13;;;;;;;;;;5053548;28;20043;-65
2021/07/20 11:01:49;;;;;;;22.25;11.55;;;;;;;;;;5061924;28;20377;-65
2021/07/20 11:04:26;;;;;;;24.42;12.25;;;;;;;;;;5065268;28;20040;-64
2021/07/20 11:06:52;;;;;;;23.40;11.82;;;;;;;;;;5064869;28;20033;-64
2021/07/20 11:09:18;;;;;;;23.27;11.50;;;;;;;;;;5064086;28;20024;-64
2021/07/20 11:11:44;;;;;;;21.83;10.82;;;;;;;;;;5057714;28;20025;-64
2021/07/20 11:14:10;;;;;;;16.92;9.73;;;;;;;;;;5060955;28;20108;-64
2021/07/20 11:16:38;;;;;;;21.85;11.23;;;;;;;;;;5066637;28;20024;-64
2021/07/20 11:19:03;;;;;;;24.15;11.20;;;;;;;;;;5057279;28;20111;-64
2021/07/20 11:21:30;;;;;;;20.50;10.05;;;;;;;;;;5066240;28;20143;-64
2021/07/20 11:23:57;;;;;;;21.55;11.75;;;;;;;;;;5052634;28;20079;-64
2021/07/20 11:26:24;;;;;;;21.42;10.93;;;;;;;;;;5061698;28;20095;-64
2021/07/20 11:28:50;;;;;;;20.02;11.00;;;;;;;;;;5059848;28;20017;-64
2021/07/20 11:31:24;;;;;;;19.85;11.32;;;;;;;;;;5052055;28;20034;-64
2021/07/20 11:33:53;;;;;;;15.98;10.10;;;;;;;;;;5066266;28;20107;-64
2021/07/20 11:36:23;;;;;;;20.35;8.75;;;;;;;;;;5069216;28;20465;-64
2021/07/20 11:38:50;;;;;;;16.75;9.43;;;;;;;;;;5065135;28;20024;-65
2021/07/20 11:41:27;;;;;;;15.27;8.57;;;;;;;;;;5073037;28;20036;-64
2021/07/20 11:44:08;;;;;;;24.27;10.10;;;;;;;;;;5058914;28;20855;-65
2021/07/20 11:46:49;;;;;;;19.83;10.50;;;;;;;;;;5059420;28;20346;-64
2021/07/20 11:49:22;;;;;;;19.73;9.90;;;;;;;;;;5051548;28;20017;-65
2021/07/20 11:51:50;;;;;;;21.10;9.60;;;;;;;;;;5052890;28;20484;-64
2021/07/20 11:54:47;;;;;;;17.88;9.88;;;;;;;;;;5065687;28;20032;-64
2021/07/20 11:57:12;;;;;;;22.73;10.63;;;;;;;;;;5033734;28;20040;-64
2021/07/20 11:59:40;;;;;;;24.50;10.48;;;;;;;;;;5074316;28;20157;-64
2021/07/20 12:02:08;;;;;;;18.75;10.02;;;;;;;;;;5057477;28;20033;-64
2021/07/20 12:04:33;;;;;;;20.30;9.27;;;;;;;;;;5069579;28;20059;-64
2021/07/20 12:07:11;;;;;;;18.15;10.07;;;;;;;;;;5053379;28;20049;-64
2021/07/20 12:09:45;;;;;;;17.67;10.73;;;;;;;;;;5051991;28;20036;-64
2021/07/20 12:12:10;;;;;;;24.50;10.77;;;;;;;;;;5051944;28;20074;-64
2021/07/20 12:14:36;;;;;;;18.13;9.80;;;;;;;;;;5056014;28;20024;-65
2021/07/20 12:17:01;;;;;;;23.08;10.13;;;;;;;;;;5068548;28;20483;-64
2021/07/20 12:19:28;;;;;;;20.00;10.57;;;;;;;;;;5053860;28;20024;-64
2021/07/20 12:21:53;;;;;;;22.45;10.18;;;;;;;;;;5052630;28;20024;-64
2021/07/20 12:24:21;;;;;;;20.20;10.80;;;;;;;;;;5070373;28;20031;-64
2021/07/20 12:26:47;;;;;;;22.98;9.77;;;;;;;;;;5065862;28;20376;-64
2021/07/20 12:29:13;;;;;;;15.93;8.32;;;;;;;;;;5054030;28;20013;-65
2021/07/20 12:31:38;;;;;;;20.27;9.63;;;;;;;;;;5059194;28;20028;-64
2021/07/20 12:34:04;;;;;;;17.35;9.13;;;;;;;;;;5101477;22;20393;-67
2021/07/20 12:36:30;;;;;;;21.92;8.55;;;;;;;;;;5085405;28;20015;-67
2021/07/20 12:39:09;;;;;;;20.73;9.60;;;;;;;;;;5090552;28;20437;-67
2021/07/20 12:41:35;;;;;;;19.23;8.80;;;;;;;;;;5090954;28;20456;-67
2021/07/20 12:44:01;;;;;;;19.65;9.05;;;;;;;;;;5084063;28;20060;-67
2021/07/20 12:46:28;;;;;;;18.88;8.45;;;;;;;;;;5069536;28;20060;-67
2021/07/20 12:48:53;;;;;;;23.75;8.95;;;;;;;;;;5057522;28;20420;-67
2021/07/20 12:51:20;;;;;;;25.27;9.57;;;;;;;;;;5052691;28;20016;-66
2021/07/20 12:53:46;;;;;;;16.60;9.02;;;;;;;;;;5064643;28;20033;-66
2021/07/20 12:56:12;;;;;;;16.35;8.40;;;;;;;;;;5067625;28;20052;-66
2021/07/20 12:58:38;;;;;;;22.27;9.40;;;;;;;;;;5070221;28;20486;-67
2021/07/20 13:01:03;;;;;;;14.95;8.50;;;;;;;;;;5070704;28;20059;-67
2021/07/20 13:03:28;;;;;;;17.40;8.77;;;;;;;;;;5070263;28;20024;-68
2021/07/20 13:05:55;;;;;;;18.42;8.90;;;;;;;;;;5069971;28;20047;-67
2021/07/20 13:08:21;;;;;;;21.50;9.30;;;;;;;;;;5070074;28;20074;-67
2021/07/20 13:10:50;;;;;;;22.00;8.52;;;;;;;;;;5070031;28;20033;-67
2021/07/20 13:13:15;;;;;;;22.55;8.50;;;;;;;;;;5068515;28;20027;-67
2021/07/20 13:15:45;;;;;;;20.67;8.93;;;;;;;;;;5068893;28;20028;-67
2021/07/20 13:18:12;;;;;;;18.63;8.77;;;;;;;;;;5070031;28;20035;-66
2021/07/20 13:20:37;;;;;;;17.98;8.38;;;;;;;;;;5069856;28;20105;-67
2021/07/20 13:23:02;;;;;;;15.27;7.37;;;;;;;;;;5070307;28;20121;-66
2021/07/20 13:25:27;;;;;;;15.52;8.10;;;;;;;;;;5068950;28;20650;-67
2021/07/20 13:27:54;;;;;;;15.77;8.18;;;;;;;;;;5069338;28;20025;-67
2021/07/20 13:30:24;;;;;;;19.50;10.30;;;;;;;;;;5070129;28;20032;-67
2021/07/20 13:32:49;;;;;;;16.17;9.07;;;;;;;;;;5068824;28;20043;-67
2021/07/20 13:35:15;;;;;;;20.70;9.15;;;;;;;;;;5071338;28;20123;-67
2021/07/20 13:37:40;;;;;;;15.05;7.82;;;;;;;;;;5073749;28;20135;-67
2021/07/20 13:40:07;;;;;;;17.23;8.30;;;;;;;;;;5074211;28;20028;-67
2021/07/20 13:42:33;;;;;;;14.90;7.57;;;;;;;;;;5073091;28;20032;-67
2021/07/20 13:45:02;;;;;;;16.98;8.98;;;;;;;;;;5074072;28;20372;-67
2021/07/20 13:47:31;;;;;;;17.33;8.50;;;;;;;;;;5073202;28;20473;-67
2021/07/20 13:49:57;;;;;;;18.17;8.52;;;;;;;;;;5063789;28;20082;-68
2021/07/20 13:52:23;;;;;;;17.00;9.13;;;;;;;;;;5071876;28;20020;-67
2021/07/20 13:54:50;;;;;;;13.10;7.90;;;;;;;;;;5071432;28;20039;-66
2021/07/20 13:57:15;;;;;;;15.73;8.93;;;;;;;;;;5074206;28;20151;-67
2021/07/20 13:59:43;;;;;;;17.00;7.55;;;;;;;;;;5073590;28;20103;-68
2021/07/20 14:02:12;;;;;;;13.15;6.90;;;;;;;;;;5063487;28;20024;-66
2021/07/20 14:04:37;;;;;;;16.17;7.25;;;;;;;;;;5071950;28;20028;-66
2021/07/20 14:07:03;;;;;;;17.50;7.18;;;;;;;;;;5073135;28;20025;-66
2021/07/20 14:09:31;;;;;;;11.93;6.97;;;;;;;;;;5073134;28;20016;-66
2021/07/20 14:11:57;;;;;;;16.10;7.53;;;;;;;;;;5073775;28;20027;-66
2021/07/20 14:14:22;;;;;;;19.00;7.90;;;;;;;;;;5072835;28;20099;-66
2021/07/20 14:16:49;;;;;;;15.77;8.10;;;;;;;;;;5072695;28;20384;-66
2021/07/20 14:19:16;;;;;;;12.40;7.10;;;;;;;;;;5073125;28;20146;-66
2021/07/20 14:21:44;;;;;;;17.58;6.90;;;;;;;;;;5072035;28;20031;-66
2021/07/20 14:24:11;;;;;;;16.90;7.53;;;;;;;;;;5072170;28;20020;-67